首页
METAR-TAF:

METAR-TAF

机场 :

阿德莱德, 澳大利亚

阿德萊德機場

纬度: 34-56S, 经度: 138-31E, 海拔: 6米

当前天气观测

该预报发布于17分钟前的13:00 UTC
风速10节,风向东北
温度 28°C
湿度 20%
气压 1012 hPa
能见度10公里或以上
1500米以下无云,无积雨云

METAR: YPAD 171300Z 09005KT CAVOK 28/03 Q1012 FM1400 05010KT CAVOK

时间: 23:47 (13:17 UTC)

预报

该预报发布于2小时和13分钟前的11:04 UTC
预报有效从17日的 12点(UTC)到 18日的 18点(UTC)
风速10节,风向东南
能见度10公里或以上
1500米以下无云,无积雨云
从 17日的 1400点(UTC)
风速10节,风向东北
能见度10公里或以上
1500米以下无云,无积雨云
从 17日的 2300点(UTC)
风速14节,风向
能见度10公里或以上
1500米以下无云,无积雨云
从 18日的 0100点(UTC)
风速12节,风向西北
能见度10公里或以上
1500米以下无云,无积雨云
从 18日的 0600点(UTC)
风速10节,风向西转西南
能见度10公里或以上
1500米以下无云,无积雨云
从 18日的 1000点(UTC)
风速5节,风向多变
能见度10公里或以上
1500米以下无云,无积雨云
从 18日的 1400点(UTC)
风速10节,风向东北
能见度10公里或以上
1500米以下无云,无积雨云

TAF: YPAD 171104Z 1712/1818 13010KT CAVOK FM171400 05010KT CAVOK FM172300 36014KT CAVOK FM180100 31012KT CAVOK FM180600 24010KT CAVOK FM181000 VRB05KT CAVOK FM181400 05010KT CAVOK

超过4000个机场的气象观测和天气预报(METAR&TAF报告)。

可查询的气象台以黄色和红色小点在地图上表示。

将鼠标移到小点上方,可查看气象台名称。

然后点击查看天气观测和预报。

如需切换地图:点击带黑十字的绿色按钮放大地图;点击带横线的绿色按钮缩小地图;或者点击绿色箭头查看邻近地区的地图。


METAR-TAF: